Time;durP1;ratioP1;P1;durP2;ratioP2;P2;SDS_P1;SDS_P2;PMS_P1;PMS_P2;Temp;Humidity;BMP_temperature;BMP_pressure;BME280_temperature;BME280_humidity;BME280_pressure;Samples;Min_cycle;Max_cycle;Signal;HPM_P1;HPM_P2
2023/05/14 00:01:27;;;;;;;7.13;5.95;;;12.80;99.90;;;;;;5136742;27;20076;-74
2023/05/14 00:03:53;;;;;;;7.20;4.22;;;12.80;99.90;;;;;;5118537;27;20045;-74
2023/05/14 00:06:19;;;;;;;7.55;4.22;;;12.90;99.90;;;;;;5137305;27;20015;-69
2023/05/14 00:08:45;;;;;;;3.05;2.70;;;12.90;99.90;;;;;;5136465;27;20034;-69
2023/05/14 00:11:10;;;;;;;9.85;5.20;;;12.90;99.90;;;;;;5118334;27;20038;-70
2023/05/14 00:13:36;;;;;;;4.50;3.17;;;12.80;99.90;;;;;;5118210;27;20035;-70
2023/05/14 00:16:02;;;;;;;18.15;6.85;;;12.80;99.90;;;;;;5136540;27;20015;-70
2023/05/14 00:18:28;;;;;;;0.45;0.40;;;12.70;99.90;;;;;;5136731;27;20031;-69
2023/05/14 00:20:54;;;;;;;24.60;8.10;;;12.70;99.90;;;;;;5135906;27;20154;-69
2023/05/14 00:23:23;;;;;;;0.55;0.55;;;12.70;99.90;;;;;;5136563;27;20118;-70
2023/05/14 00:25:49;;;;;;;6.20;4.45;;;12.70;99.90;;;;;;5136287;27;20034;-68
2023/05/14 00:28:15;;;;;;;5.63;4.35;;;12.70;99.90;;;;;;5136563;27;20027;-68
2023/05/14 00:30:41;;;;;;;4.47;2.33;;;12.80;99.90;;;;;;5117568;27;20031;-69
2023/05/14 00:33:07;;;;;;;0.88;0.88;;;12.80;99.90;;;;;;5136536;27;20059;-69
2023/05/14 00:35:34;;;;;;;8.10;2.83;;;12.80;99.90;;;;;;5117459;27;20506;-69
2023/05/14 00:38:01;;;;;;;8.82;5.47;;;12.70;99.90;;;;;;5136061;27;20015;-69
2023/05/14 00:40:28;;;;;;;10.10;3.15;;;12.70;99.90;;;;;;5135913;27;20475;-70
2023/05/14 00:42:55;;;;;;;15.32;6.75;;;12.70;99.90;;;;;;5117606;27;20050;-69
2023/05/14 00:45:20;;;;;;;8.65;4.72;;;12.60;99.90;;;;;;5117564;27;20057;-69
2023/05/14 00:47:47;;;;;;;18.80;8.10;;;12.70;99.90;;;;;;5106412;28;20031;-69
2023/05/14 00:50:14;;;;;;;10.95;6.03;;;12.60;99.90;;;;;;5132576;27;20024;-71
2023/05/14 00:52:41;;;;;;;4.93;4.10;;;12.70;99.90;;;;;;5135426;27;20028;-71
2023/05/14 00:55:07;;;;;;;0.52;0.52;;;12.70;99.90;;;;;;5135923;27;20417;-71
2023/05/14 00:57:35;;;;;;;5.68;2.85;;;12.70;99.90;;;;;;5117115;27;20070;-73
2023/05/14 01:00:01;;;;;;;2.90;2.70;;;12.70;99.90;;;;;;5135803;27;20111;-72
2023/05/14 01:02:27;;;;;;;8.20;4.57;;;12.80;99.90;;;;;;5135571;27;20043;-68
2023/05/14 01:04:54;;;;;;;2.63;2.03;;;12.70;99.90;;;;;;5135538;27;20106;-74
2023/05/14 01:07:25;;;;;;;4.50;3.40;;;12.70;99.90;;;;;;5135388;27;20072;-74
2023/05/14 01:10:01;;;;;;;2.20;2.00;;;12.60;99.90;;;;;;5135726;27;20031;-72
2023/05/14 01:12:46;;;;;;;11.32;3.35;;;12.70;99.90;;;;;;5135297;27;20035;-72
2023/05/14 01:15:23;;;;;;;9.20;4.35;;;12.60;99.90;;;;;;5135682;27;20030;-75
2023/05/14 01:18:05;;;;;;;2.60;1.63;;;12.60;99.90;;;;;;5135373;27;20023;-72
2023/05/14 01:20:31;;;;;;;5.97;2.42;;;12.60;99.90;;;;;;5134927;27;20379;-73
2023/05/14 01:22:57;;;;;;;1.70;1.60;;;12.60;99.90;;;;;;5135152;27;20039;-74
2023/05/14 01:25:23;;;;;;;2.08;1.88;;;12.60;99.90;;;;;;5135290;27;20019;-75
2023/05/14 01:28:07;;;;;;;7.88;2.53;;;12.50;99.90;;;;;;5099503;27;20559;-72
2023/05/14 01:30:36;;;;;;;5.22;4.03;;;12.50;99.90;;;;;;5116702;27;20051;-73
2023/05/14 01:33:12;;;;;;;6.32;4.03;;;12.50;99.90;;;;;;5116503;27;20114;-74
2023/05/14 01:35:39;;;;;;;7.35;3.80;;;12.40;99.90;;;;;;5134875;27;20031;-77
2023/05/14 01:38:09;;;;;;;2.70;2.50;;;12.40;99.90;;;;;;5134958;27;20455;-73
2023/05/14 01:40:36;;;;;;;9.52;5.22;;;12.40;99.90;;;;;;5116376;27;20027;-73
2023/05/14 01:43:03;;;;;;;13.52;4.55;;;12.40;99.90;;;;;;5116313;27;20038;-77
2023/05/14 01:45:30;;;;;;;1.63;1.27;;;12.40;99.90;;;;;;5116567;27;20438;-74
2023/05/14 01:47:56;;;;;;;3.17;2.47;;;12.40;99.90;;;;;;5103597;28;20064;-73
2023/05/14 01:50:22;;;;;;;25.80;4.78;;;12.30;99.90;;;;;;5114572;27;20019;-71
2023/05/14 01:52:48;;;;;;;3.30;3.00;;;12.40;99.90;;;;;;5121419;27;20067;-76
2023/05/14 01:55:14;;;;;;;14.35;4.93;;;12.40;99.90;;;;;;5113952;28;20054;-75
2023/05/14 01:57:40;;;;;;;1.73;1.63;;;12.40;99.90;;;;;;5095487;28;20110;-76
2023/05/14 02:00:07;;;;;;;4.32;3.00;;;12.40;99.90;;;;;;5095718;28;20046;-75
2023/05/14 02:02:39;;;;;;;5.88;4.88;;;12.40;99.90;;;;;;5112939;28;20043;-76
2023/05/14 02:05:07;;;;;;;5.07;2.58;;;12.40;99.90;;;;;;5095611;28;20189;-76
2023/05/14 02:07:33;;;;;;;4.32;3.03;;;12.40;99.90;;;;;;5095322;28;20118;-76
2023/05/14 02:09:59;;;;;;;1.77;1.67;;;12.40;99.90;;;;;;5095726;28;20153;-76
2023/05/14 02:12:26;;;;;;;7.97;3.83;;;12.30;99.90;;;;;;5095613;28;20031;-76
2023/05/14 02:14:52;;;;;;;3.63;1.27;;;12.30;99.90;;;;;;5095482;28;20046;-74
2023/05/14 02:17:19;;;;;;;4.85;3.45;;;12.30;99.90;;;;;;5095045;28;20028;-75
2023/05/14 02:19:45;;;;;;;4.00;2.85;;;12.30;99.90;;;;;;5095233;28;20036;-75
2023/05/14 02:22:11;;;;;;;5.47;4.70;;;12.30;99.90;;;;;;5113754;28;20027;-77
2023/05/14 02:24:37;;;;;;;4.32;2.10;;;12.30;99.90;;;;;;5095317;28;20066;-75
2023/05/14 02:27:03;;;;;;;18.17;5.82;;;12.30;99.90;;;;;;5095436;28;20047;-75
2023/05/14 02:29:29;;;;;;;0.85;0.85;;;12.20;99.90;;;;;;5113206;28;20031;-76
2023/05/14 02:31:55;;;;;;;0.47;0.47;;;12.20;99.90;;;;;;5113230;28;20012;-72
2023/05/14 02:34:21;;;;;;;3.88;3.38;;;12.20;99.90;;;;;;5113492;28;20038;-76
2023/05/14 02:36:47;;;;;;;4.88;3.67;;;12.20;99.90;;;;;;5095086;28;20243;-75
2023/05/14 02:39:12;;;;;;;0.20;0.20;;;12.20;99.90;;;;;;5095067;28;20023;-72
2023/05/14 02:41:38;;;;;;;3.95;1.10;;;12.20;99.90;;;;;;5094860;28;20574;-76
2023/05/14 02:44:04;;;;;;;0.32;0.32;;;12.20;99.90;;;;;;5113142;28;20027;-76
2023/05/14 02:46:31;;;;;;;5.65;2.45;;;12.30;99.90;;;;;;5094956;28;20023;-76
2023/05/14 02:48:57;;;;;;;0.03;0.03;;;12.30;99.90;;;;;;5113055;28;20460;-72
2023/05/14 02:51:23;;;;;;;2.45;2.25;;;12.40;99.90;;;;;;5095093;28;20114;-75
2023/05/14 02:53:48;;;;;;;1.58;1.13;;;12.40;99.90;;;;;;5094639;28;20073;-74
2023/05/14 02:56:15;;;;;;;2.40;2.20;;;12.30;99.90;;;;;;5113643;28;20447;-70
2023/05/14 02:58:41;;;;;;;8.80;3.08;;;12.40;99.90;;;;;;5094870;28;20126;-70
2023/05/14 03:01:07;;;;;;;6.30;4.40;;;12.30;99.90;;;;;;5094725;28;20119;-72
2023/05/14 03:03:37;;;;;;;3.03;2.65;;;12.20;99.90;;;;;;5113087;28;20438;-70
2023/05/14 03:06:03;;;;;;;2.95;2.10;;;12.10;99.90;;;;;;5094791;28;20016;-70
2023/05/14 03:08:29;;;;;;;4.63;4.15;;;12.10;99.90;;;;;;5094713;28;20039;-70
2023/05/14 03:10:55;;;;;;;6.25;4.80;;;12.10;99.90;;;;;;5113062;28;20065;-70
2023/05/14 03:13:20;;;;;;;2.92;2.22;;;12.00;99.90;;;;;;5113086;28;20032;-71
2023/05/14 03:15:46;;;;;;;3.45;3.15;;;12.00;99.90;;;;;;5080863;28;20047;-70
2023/05/14 03:18:13;;;;;;;7.22;4.57;;;11.90;99.90;;;;;;5082154;28;20039;-70
2023/05/14 03:20:39;;;;;;;7.63;1.83;;;11.90;99.90;;;;;;5098615;28;20028;-70
2023/05/14 03:23:05;;;;;;;12.65;5.80;;;11.90;99.90;;;;;;5098648;28;20036;-70
2023/05/14 03:25:30;;;;;;;12.60;6.40;;;11.90;99.90;;;;;;5117134;28;20089;-70
2023/05/14 03:27:57;;;;;;;6.70;3.55;;;11.90;99.90;;;;;;5116957;28;20067;-74
2023/05/14 03:30:23;;;;;;;4.32;2.70;;;11.90;99.90;;;;;;5098464;28;20502;-71
2023/05/14 03:32:49;;;;;;;5.55;3.40;;;11.90;99.90;;;;;;5098362;28;20023;-74
2023/05/14 03:35:15;;;;;;;0.20;0.20;;;11.90;99.90;;;;;;5117243;28;20020;-73
2023/05/14 03:37:41;;;;;;;2.78;1.63;;;11.90;99.90;;;;;;5116978;28;20020;-73
2023/05/14 03:40:07;;;;;;;3.30;1.10;;;11.80;99.90;;;;;;5116309;28;20050;-74
2023/05/14 03:42:35;;;;;;;2.55;2.35;;;11.90;99.90;;;;;;5117022;28;20050;-75
2023/05/14 03:45:02;;;;;;;5.22;4.05;;;11.90;99.90;;;;;;5097785;28;20016;-71
2023/05/14 03:47:27;;;;;;;2.65;2.45;;;11.90;99.90;;;;;;5098570;28;20031;-74
2023/05/14 03:49:54;;;;;;;1.65;1.55;;;11.90;99.90;;;;;;5098042;28;20664;-75
2023/05/14 03:52:20;;;;;;;0.38;0.38;;;11.80;99.90;;;;;;5116609;28;20024;-74
2023/05/14 03:54:46;;;;;;;1.08;0.98;;;11.90;99.90;;;;;;5116408;28;20041;-75
2023/05/14 03:57:11;;;;;;;0.80;0.80;;;11.80;99.90;;;;;;5098018;28;20485;-71
2023/05/14 03:59:37;;;;;;;1.70;1.60;;;11.80;99.90;;;;;;5115632;28;20100;-75
2023/05/14 04:02:03;;;;;;;4.40;2.70;;;11.70;99.90;;;;;;5097270;28;20380;-71
2023/05/14 04:04:29;;;;;;;4.05;3.28;;;11.60;99.90;;;;;;5115833;28;20023;-74
2023/05/14 04:06:55;;;;;;;9.27;3.17;;;11.60;99.90;;;;;;5116075;28;20026;-72
2023/05/14 04:09:20;;;;;;;6.43;2.53;;;11.60;99.90;;;;;;5097730;28;20023;-73
2023/05/14 04:11:46;;;;;;;4.38;3.33;;;11.50;99.90;;;;;;5097612;28;20043;-72
2023/05/14 04:14:12;;;;;;;2.15;1.73;;;11.50;99.90;;;;;;5080552;28;20115;-72
2023/05/14 04:16:37;;;;;;;1.67;1.58;;;11.40;99.90;;;;;;5097717;28;20501;-74
2023/05/14 04:19:05;;;;;;;6.10;2.75;;;11.40;99.90;;;;;;5097683;28;20019;-75
2023/05/14 04:21:31;;;;;;;1.40;1.33;;;11.40;99.90;;;;;;5097397;28;20114;-74
2023/05/14 04:23:56;;;;;;;14.80;2.70;;;11.40;99.90;;;;;;5115884;28;20118;-71
2023/05/14 04:26:22;;;;;;;5.28;3.80;;;11.40;99.90;;;;;;5114718;28;20027;-74
2023/05/14 04:28:48;;;;;;;2.17;2.05;;;11.40;99.90;;;;;;5115644;28;20028;-75
2023/05/14 04:31:14;;;;;;;2.20;2.00;;;11.30;99.90;;;;;;5097155;28;20038;-74
2023/05/14 04:33:40;;;;;;;1.13;0.65;;;11.40;99.90;;;;;;5115897;28;20464;-76
2023/05/14 04:36:07;;;;;;;2.25;1.13;;;11.40;99.90;;;;;;5115611;28;20479;-76
2023/05/14 04:38:33;;;;;;;1.42;1.35;;;11.50;99.90;;;;;;5115431;28;20096;-76
2023/05/14 04:40:59;;;;;;;2.05;1.88;;;11.50;99.90;;;;;;5115398;28;20069;-75
2023/05/14 04:43:24;;;;;;;3.03;1.83;;;11.60;99.90;;;;;;5114945;28;20455;-76
2023/05/14 04:45:51;;;;;;;2.67;0.68;;;11.60;99.90;;;;;;5115415;28;20028;-72
2023/05/14 04:48:17;;;;;;;1.20;1.10;;;11.80;99.90;;;;;;5097130;28;20399;-69
2023/05/14 04:50:43;;;;;;;1.63;1.52;;;11.80;99.90;;;;;;5115426;28;20026;-74
2023/05/14 04:53:09;;;;;;;11.95;2.28;;;11.80;99.90;;;;;;5115300;28;20056;-74
2023/05/14 04:55:35;;;;;;;1.25;1.20;;;11.70;99.90;;;;;;5115307;28;20468;-74
2023/05/14 04:58:01;;;;;;;0.20;0.20;;;11.70;99.90;;;;;;5114819;28;20027;-75
2023/05/14 05:00:27;;;;;;;1.60;1.23;;;11.70;99.90;;;;;;5115147;28;20468;-75
2023/05/14 05:02:53;;;;;;;12.55;4.35;;;11.60;99.90;;;;;;5115168;28;20464;-74
2023/05/14 05:05:19;;;;;;;14.80;5.70;;;11.60;99.90;;;;;;5115460;28;20024;-74
2023/05/14 05:07:45;;;;;;;1.23;1.15;;;11.60;99.90;;;;;;5114853;28;20444;-73
2023/05/14 05:10:10;;;;;;;3.45;2.15;;;11.60;99.90;;;;;;5115067;28;20043;-74
2023/05/14 05:12:37;;;;;;;5.82;1.55;;;11.60;99.90;;;;;;5096370;28;20499;-75
2023/05/14 05:15:03;;;;;;;1.25;1.10;;;11.70;99.90;;;;;;5115087;28;20088;-74
2023/05/14 05:17:29;;;;;;;1.48;0.60;;;11.70;99.90;;;;;;5114644;28;20027;-74
2023/05/14 05:19:54;;;;;;;3.60;2.97;;;11.80;99.90;;;;;;5114894;28;20020;-74
2023/05/14 05:22:20;;;;;;;5.18;3.88;;;11.90;99.90;;;;;;5114575;28;20165;-74
2023/05/14 05:24:46;;;;;;;3.42;3.20;;;11.90;99.90;;;;;;5114753;28;20168;-73
2023/05/14 05:27:12;;;;;;;6.00;4.95;;;11.90;99.90;;;;;;5114243;28;20048;-73
2023/05/14 05:29:37;;;;;;;3.42;2.63;;;11.90;99.90;;;;;;5114451;28;20034;-74
2023/05/14 05:32:04;;;;;;;2.20;2.03;;;12.00;99.90;;;;;;5114597;28;20098;-74
2023/05/14 05:34:30;;;;;;;7.60;3.28;;;12.00;99.90;;;;;;5114426;28;20043;-74
2023/05/14 05:36:55;;;;;;;6.15;5.50;;;12.00;99.90;;;;;;5114454;28;20031;-74
2023/05/14 05:39:21;;;;;;;13.77;3.92;;;12.10;99.90;;;;;;5114396;28;20034;-74
2023/05/14 05:41:47;;;;;;;2.00;1.70;;;12.20;99.90;;;;;;5113899;28;20382;-75
2023/05/14 05:44:13;;;;;;;0.73;0.73;;;12.20;99.90;;;;;;5114402;28;20035;-74
2023/05/14 05:46:38;;;;;;;6.60;3.03;;;12.20;99.90;;;;;;5114871;28;20083;-74
2023/05/14 05:49:04;;;;;;;5.88;5.03;;;12.30;99.90;;;;;;5115316;28;20084;-69
2023/05/14 05:51:30;;;;;;;14.02;8.95;;;12.30;99.90;;;;;;5114759;28;20024;-69
2023/05/14 05:53:56;;;;;;;7.25;3.08;;;12.30;99.90;;;;;;5114107;28;20076;-72
2023/05/14 05:56:22;;;;;;;2.85;2.47;;;12.40;99.90;;;;;;5114036;28;20031;-74
2023/05/14 05:58:48;;;;;;;1.85;1.75;;;12.50;99.90;;;;;;5113746;28;20049;-69
2023/05/14 06:01:13;;;;;;;0.47;0.47;;;12.50;99.90;;;;;;5114092;28;20425;-74
2023/05/14 06:03:39;;;;;;;1.85;1.17;;;12.60;99.90;;;;;;5113994;28;20114;-75
2023/05/14 06:06:05;;;;;;;10.85;6.68;;;12.90;99.90;;;;;;5113861;28;20068;-75
2023/05/14 06:08:31;;;;;;;4.85;2.63;;;12.80;99.90;;;;;;5114087;28;20031;-74
2023/05/14 06:10:56;;;;;;;8.00;5.68;;;12.80;99.90;;;;;;5113778;28;20451;-74
2023/05/14 06:13:22;;;;;;;17.77;2.30;;;12.70;99.90;;;;;;5113663;28;20364;-74
2023/05/14 06:15:48;;;;;;;15.52;6.75;;;12.80;99.90;;;;;;5113867;28;20456;-76
2023/05/14 06:18:14;;;;;;;10.52;4.43;;;12.80;99.90;;;;;;5113702;28;20031;-76
2023/05/14 06:20:40;;;;;;;5.95;4.88;;;12.90;99.90;;;;;;5113664;28;20072;-76
2023/05/14 06:23:06;;;;;;;10.65;5.20;;;12.80;99.90;;;;;;5113512;28;20046;-76
2023/05/14 06:25:32;;;;;;;0.88;0.88;;;13.00;99.90;;;;;;5113640;28;20471;-75
2023/05/14 06:27:58;;;;;;;4.55;3.42;;;13.20;99.90;;;;;;5113436;28;20030;-77
2023/05/14 06:30:24;;;;;;;4.38;3.42;;;13.20;99.90;;;;;;5113731;28;20455;-76
2023/05/14 06:32:50;;;;;;;10.43;5.65;;;13.30;99.90;;;;;;5113476;28;20035;-77
2023/05/14 06:35:17;;;;;;;12.02;3.83;;;13.20;99.90;;;;;;5095479;28;20058;-75
2023/05/14 06:37:44;;;;;;;7.97;6.07;;;13.20;99.90;;;;;;5113790;28;20023;-70
2023/05/14 06:40:11;;;;;;;4.47;3.10;;;13.30;99.90;;;;;;5112763;28;20012;-72
2023/05/14 06:42:36;;;;;;;4.47;3.78;;;13.40;99.90;;;;;;5113144;28;20047;-72
2023/05/14 06:45:05;;;;;;;18.73;9.32;;;13.40;99.90;;;;;;5094956;28;20019;-71
2023/05/14 06:47:30;;;;;;;12.32;6.80;;;13.20;99.90;;;;;;5113412;28;20024;-75
2023/05/14 06:49:57;;;;;;;3.45;3.15;;;13.20;99.90;;;;;;5112602;28;20026;-71
2023/05/14 06:52:24;;;;;;;5.35;2.13;;;13.30;99.90;;;;;;5113271;28;20379;-71
2023/05/14 06:54:50;;;;;;;9.93;3.00;;;13.40;99.90;;;;;;5113150;28;20038;-71
2023/05/14 06:57:15;;;;;;;6.10;3.70;;;13.40;99.90;;;;;;5113045;28;20478;-75
2023/05/14 06:59:41;;;;;;;4.80;2.05;;;13.70;99.90;;;;;;5113222;28;20085;-74
2023/05/14 07:02:07;;;;;;;4.00;2.28;;;13.80;99.90;;;;;;5094806;28;20028;-75
2023/05/14 07:04:33;;;;;;;0.80;0.80;;;14.10;99.90;;;;;;5098670;28;20360;-74
2023/05/14 07:06:59;;;;;;;6.55;5.00;;;14.50;99.90;;;;;;5112978;28;20028;-73
2023/05/14 07:09:24;;;;;;;12.82;6.85;;;14.30;99.90;;;;;;5112808;28;20027;-75
2023/05/14 07:11:50;;;;;;;3.58;2.70;;;14.10;99.90;;;;;;5113099;28;20530;-76
2023/05/14 07:14:16;;;;;;;16.45;7.57;;;13.80;99.90;;;;;;5112789;28;20024;-70
2023/05/14 07:16:41;;;;;;;8.38;6.00;;;13.70;99.90;;;;;;5113264;28;20114;-75
2023/05/14 07:19:07;;;;;;;1.25;1.15;;;13.70;99.90;;;;;;5112898;28;20034;-71
2023/05/14 07:21:34;;;;;;;4.63;2.95;;;13.90;99.90;;;;;;5098554;28;20024;-75
2023/05/14 07:24:00;;;;;;;3.45;3.15;;;14.10;99.90;;;;;;5112713;28;20079;-75
2023/05/14 07:26:26;;;;;;;7.68;4.50;;;14.00;99.90;;;;;;5112803;28;20118;-76
2023/05/14 07:28:52;;;;;;;2.13;1.92;;;13.90;99.90;;;;;;5113023;28;20487;-76
2023/05/14 07:31:18;;;;;;;21.88;9.85;;;14.00;99.90;;;;;;5112647;28;20472;-72
2023/05/14 07:33:43;;;;;;;15.15;8.95;;;14.10;99.90;;;;;;5112649;28;20027;-76
2023/05/14 07:36:09;;;;;;;0.30;0.30;;;13.80;99.90;;;;;;5112738;28;20103;-73
2023/05/14 07:38:35;;;;;;;11.77;6.75;;;14.00;99.90;;;;;;5113172;28;20027;-75
2023/05/14 07:41:01;;;;;;;8.13;4.50;;;14.20;99.90;;;;;;5094217;28;20027;-75
2023/05/14 07:43:27;;;;;;;9.68;6.18;;;14.20;99.90;;;;;;5112662;28;20080;-72
2023/05/14 07:45:54;;;;;;;2.47;2.28;;;14.00;99.90;;;;;;5112848;28;20452;-75
2023/05/14 07:48:20;;;;;;;8.30;2.63;;;14.20;99.90;;;;;;5094428;28;20074;-75
2023/05/14 07:50:47;;;;;;;11.30;4.25;;;14.30;99.90;;;;;;5112232;28;20039;-75
2023/05/14 07:53:12;;;;;;;10.00;6.47;;;14.20;99.90;;;;;;5112506;28;20028;-71
2023/05/14 07:55:38;;;;;;;5.65;3.83;;;14.30;99.90;;;;;;5112592;28;20034;-75
2023/05/14 07:58:04;;;;;;;0.95;0.95;;;14.20;99.90;;;;;;5112841;28;20110;-70
2023/05/14 08:00:30;;;;;;;2.65;2.45;;;14.20;99.90;;;;;;5112149;28;20039;-76
2023/05/14 08:02:56;;;;;;;13.38;6.57;;;14.50;99.90;;;;;;5115810;28;20038;-75
2023/05/14 08:05:22;;;;;;;1.13;1.02;;;14.60;99.90;;;;;;5115914;28;20028;-72
2023/05/14 08:07:47;;;;;;;4.88;4.20;;;14.90;99.90;;;;;;5116250;28;20034;-79
2023/05/14 08:10:13;;;;;;;13.50;6.80;;;15.00;99.90;;;;;;5116082;28;20189;-74
2023/05/14 08:12:39;;;;;;;12.38;8.10;;;14.80;99.90;;;;;;5116208;28;20027;-76
2023/05/14 08:15:06;;;;;;;6.93;4.72;;;14.40;99.90;;;;;;5116087;28;20076;-75
2023/05/14 08:17:32;;;;;;;9.27;7.57;;;14.40;99.90;;;;;;5097759;28;20585;-76
2023/05/14 08:19:58;;;;;;;0.95;0.88;;;14.40;99.90;;;;;;5115747;28;20059;-70
2023/05/14 08:22:23;;;;;;;12.60;7.05;;;14.60;99.90;;;;;;5115934;28;20032;-74
2023/05/14 08:24:49;;;;;;;4.93;2.60;;;14.70;99.90;;;;;;5115788;28;20121;-71
2023/05/14 08:27:17;;;;;;;3.15;2.92;;;14.60;99.90;;;;;;5115741;28;20049;-76
2023/05/14 08:29:43;;;;;;;4.15;3.50;;;14.60;99.90;;;;;;5115753;28;20051;-73
2023/05/14 08:32:09;;;;;;;1.45;1.27;;;14.50;99.90;;;;;;5097401;28;20062;-76
2023/05/14 08:34:35;;;;;;;4.18;3.70;;;14.70;99.90;;;;;;5097111;28;20433;-74
2023/05/14 08:37:01;;;;;;;0.30;0.30;;;15.00;99.90;;;;;;5080265;28;20054;-73
2023/05/14 08:39:27;;;;;;;63.28;7.85;;;15.50;99.90;;;;;;5115539;28;20119;-74
2023/05/14 08:41:56;;;;;;;22.15;6.65;;;15.30;99.90;;;;;;5114955;28;20114;-75
2023/05/14 08:44:42;;;;;;;12.32;7.00;;;15.00;99.90;;;;;;5115538;28;20046;-74
2023/05/14 08:47:09;;;;;;;7.78;4.40;;;14.80;99.90;;;;;;5115554;28;20027;-74
2023/05/14 08:49:43;;;;;;;0.28;0.28;;;14.80;99.90;;;;;;5096922;28;20061;-73
2023/05/14 08:52:10;;;;;;;7.28;5.30;;;15.00;99.90;;;;;;5115382;28;20023;-76
2023/05/14 08:54:36;;;;;;;11.88;6.90;;;15.10;99.90;;;;;;5116700;28;20035;-70
2023/05/14 08:57:03;;;;;;;4.45;2.00;;;15.20;99.90;;;;;;5099200;28;20019;-76
2023/05/14 08:59:29;;;;;;;12.73;5.80;;;15.30;99.90;;;;;;5116612;28;20051;-69
2023/05/14 09:01:57;;;;;;;5.72;4.53;;;15.40;99.90;;;;;;5114954;28;20476;-69
2023/05/14 09:04:23;;;;;;;8.02;4.90;;;15.70;99.90;;;;;;5114980;28;20059;-69
2023/05/14 09:06:54;;;;;;;4.00;2.63;;;15.90;99.90;;;;;;5097243;28;20127;-69
2023/05/14 09:09:23;;;;;;;19.90;6.93;;;15.50;99.90;;;;;;5114859;28;20035;-73
2023/05/14 09:11:51;;;;;;;3.25;3.05;;;15.20;99.90;;;;;;5115011;28;20066;-69
2023/05/14 09:14:18;;;;;;;2.95;1.83;;;15.40;99.90;;;;;;5096605;28;20063;-72
2023/05/14 09:16:48;;;;;;;5.05;4.25;;;15.50;99.90;;;;;;5114984;28;20028;-68
2023/05/14 09:19:17;;;;;;;4.18;2.03;;;15.50;99.90;;;;;;5114396;28;20120;-73
2023/05/14 09:21:44;;;;;;;0.73;0.73;;;15.60;99.90;;;;;;5114635;28;20090;-68
2023/05/14 09:24:22;;;;;;;11.38;6.63;;;16.40;99.90;;;;;;5114818;28;20141;-68
2023/05/14 09:26:50;;;;;;;20.30;5.32;;;16.00;99.90;;;;;;5114529;28;20015;-68
2023/05/14 09:29:16;;;;;;;9.95;5.55;;;16.10;99.90;;;;;;5096389;28;20436;-68
2023/05/14 09:31:42;;;;;;;7.47;2.45;;;15.60;99.90;;;;;;5114388;28;20018;-74
2023/05/14 09:34:07;;;;;;;1.83;1.73;;;16.00;99.90;;;;;;5095960;28;20046;-69
2023/05/14 09:36:34;;;;;;;8.48;5.40;;;15.90;99.90;;;;;;5114265;28;20027;-69
2023/05/14 09:39:02;;;;;;;12.98;3.05;;;16.30;99.90;;;;;;5114403;28;20467;-69
2023/05/14 09:41:28;;;;;;;5.07;3.55;;;16.20;99.90;;;;;;5114071;28;20042;-69
2023/05/14 09:43:55;;;;;;;1.38;1.15;;;16.50;99.90;;;;;;5114387;28;20478;-71
2023/05/14 09:46:22;;;;;;;5.97;3.25;;;17.10;99.90;;;;;;5114114;28;20115;-72
2023/05/14 09:48:48;;;;;;;12.75;6.20;;;17.50;99.90;;;;;;5095668;28;20388;-69
2023/05/14 09:51:16;;;;;;;11.95;5.78;;;17.60;99.90;;;;;;5114141;28;20015;-70
2023/05/14 09:53:43;;;;;;;3.83;1.58;;;17.40;99.90;;;;;;5113924;28;20028;-68
2023/05/14 09:56:09;;;;;;;5.40;4.30;;;17.20;99.90;;;;;;5096075;28;20476;-67
2023/05/14 09:58:35;;;;;;;0.38;0.38;;;17.00;99.90;;;;;;5113714;28;20105;-68
2023/05/14 10:01:01;;;;;;;5.90;3.50;;;17.70;99.90;;;;;;5113826;28;20043;-68
2023/05/14 10:03:29;;;;;;;9.63;5.53;;;17.90;99.90;;;;;;5113723;28;20035;-68
2023/05/14 10:06:00;;;;;;;12.45;6.88;;;17.80;99.90;;;;;;5113793;28;20023;-68
2023/05/14 10:08:32;;;;;;;2.25;1.25;;;17.80;99.90;;;;;;5113785;28;20035;-68
2023/05/14 10:11:02;;;;;;;3.88;2.28;;;17.90;99.90;;;;;;5113890;28;20031;-69
2023/05/14 10:13:31;;;;;;;12.00;4.65;;;18.40;99.90;;;;;;5113605;28;20107;-68
2023/05/14 10:16:06;;;;;;;0.55;0.55;;;18.70;99.90;;;;;;5095324;28;20035;-71
2023/05/14 10:18:39;;;;;;;10.60;5.10;;;17.60;99.90;;;;;;5095471;28;20036;-69
2023/05/14 10:21:06;;;;;;;6.75;2.05;;;17.50;99.90;;;;;;5113436;28;20034;-69
2023/05/14 10:23:36;;;;;;;6.93;4.50;;;18.00;99.90;;;;;;5113152;28;20050;-68
2023/05/14 10:26:03;;;;;;;11.90;4.32;;;18.10;99.90;;;;;;5113364;28;20027;-70
2023/05/14 10:28:30;;;;;;;0.65;0.65;;;18.20;99.90;;;;;;5113492;28;20023;-68
2023/05/14 10:30:59;;;;;;;0.20;0.20;;;18.60;99.90;;;;;;5113287;28;20055;-69
2023/05/14 10:33:25;;;;;;;4.80;3.67;;;18.70;99.90;;;;;;5113172;28;20049;-69
2023/05/14 10:36:07;;;;;;;4.93;2.47;;;18.90;99.90;;;;;;5095275;28;20023;-68
2023/05/14 10:38:37;;;;;;;1.20;1.10;;;19.10;99.90;;;;;;5113332;28;20372;-69
2023/05/14 10:41:16;;;;;;;15.40;4.57;;;19.40;99.90;;;;;;5113355;28;20040;-74
2023/05/14 10:43:43;;;;;;;0.80;0.80;;;18.90;99.90;;;;;;5113441;28;20040;-69
2023/05/14 10:46:11;;;;;;;1.15;0.35;;;19.30;99.90;;;;;;5113207;28;20030;-68
2023/05/14 10:48:40;;;;;;;0.63;0.63;;;19.80;99.90;;;;;;5113174;28;20247;-74
2023/05/14 10:51:09;;;;;;;8.27;4.40;;;20.30;99.90;;;;;;5113296;28;20475;-69
2023/05/14 10:53:36;;;;;;;1.45;1.27;;;20.40;99.90;;;;;;5112966;28;20020;-69
2023/05/14 10:56:06;;;;;;;9.63;4.25;;;20.10;99.90;;;;;;5113239;28;20032;-69
2023/05/14 10:58:39;;;;;;;7.70;2.55;;;19.60;99.90;;;;;;5112916;28;20084;-71
2023/05/14 11:01:07;;;;;;;8.27;4.68;;;19.50;99.90;;;;;;5112760;28;20166;-71
2023/05/14 11:03:42;;;;;;;4.32;3.95;;;19.60;99.90;;;;;;5112772;28;20130;-71
2023/05/14 11:06:09;;;;;;;0.95;0.88;;;20.20;99.90;;;;;;5113049;28;20032;-71
2023/05/14 11:08:36;;;;;;;1.00;0.95;;;19.40;99.90;;;;;;5112975;28;20486;-70
2023/05/14 11:11:01;;;;;;;9.02;4.15;;;19.80;99.90;;;;;;5112821;28;20349;-69
2023/05/14 11:13:27;;;;;;;4.00;1.73;;;20.00;99.90;;;;;;5094509;28;20177;-67
2023/05/14 11:15:55;;;;;;;11.82;4.35;;;19.50;99.90;;;;;;5094560;28;20027;-73
2023/05/14 11:18:37;;;;;;;0.20;0.20;;;19.20;99.90;;;;;;5113000;28;20028;-71
2023/05/14 11:21:03;;;;;;;6.03;3.33;;;20.10;99.90;;;;;;5112861;28;20039;-72
2023/05/14 11:23:29;;;;;;;6.00;3.58;;;20.30;99.90;;;;;;5112799;28;20506;-73
2023/05/14 11:25:55;;;;;;;7.45;4.38;;;19.90;99.90;;;;;;5094558;28;20059;-72
2023/05/14 11:28:22;;;;;;;5.88;2.80;;;19.80;99.90;;;;;;5112466;28;20076;-73
2023/05/14 11:30:49;;;;;;;9.35;4.22;;;19.60;99.90;;;;;;5112844;28;20032;-71
2023/05/14 11:33:15;;;;;;;3.83;1.75;;;19.90;99.90;;;;;;5112634;28;20104;-73
2023/05/14 11:35:44;;;;;;;0.50;0.50;;;19.70;99.90;;;;;;5113874;28;20020;-74
2023/05/14 11:38:17;;;;;;;2.47;2.17;;;20.30;99.90;;;;;;5116660;28;20036;-74
2023/05/14 11:40:57;;;;;;;0.35;0.35;;;20.70;99.90;;;;;;5116640;28;20518;-73
2023/05/14 11:43:25;;;;;;;1.08;0.98;;;21.10;99.90;;;;;;5116366;28;20075;-72
2023/05/14 11:45:52;;;;;;;8.43;4.18;;;21.70;99.90;;;;;;5116581;28;20032;-72
2023/05/14 11:48:21;;;;;;;6.00;2.88;;;21.60;99.90;;;;;;5116401;28;20119;-73
2023/05/14 11:50:49;;;;;;;8.57;3.92;;;20.40;99.90;;;;;;5116590;28;20168;-72
2023/05/14 11:53:23;;;;;;;0.40;0.40;;;21.00;99.90;;;;;;5098262;28;20024;-74
2023/05/14 11:55:49;;;;;;;9.57;4.35;;;21.30;99.90;;;;;;5116425;28;20468;-72
2023/05/14 11:58:17;;;;;;;9.35;0.77;;;21.30;99.90;;;;;;5116420;28;20383;-72
2023/05/14 12:00:44;;;;;;;0.15;0.15;;;21.10;99.90;;;;;;5097982;28;20024;-73
2023/05/14 12:03:10;;;;;;;8.35;4.97;;;22.10;99.90;;;;;;5116106;28;20077;-72
2023/05/14 12:05:39;;;;;;;3.58;2.65;;;21.40;99.90;;;;;;5116136;28;20031;-72
2023/05/14 12:08:27;;;;;;;2.30;2.10;;;21.30;99.90;;;;;;5116255;28;20019;-73
2023/05/14 12:10:54;;;;;;;9.15;1.83;;;20.90;99.90;;;;;;5115881;28;20114;-73
2023/05/14 12:13:20;;;;;;;0.57;0.57;;;21.20;99.90;;;;;;5115829;28;20387;-73
2023/05/14 12:15:54;;;;;;;0.30;0.20;;;22.20;99.90;;;;;;5115907;28;20089;-72
2023/05/14 12:18:20;;;;;;;7.68;1.98;;;23.10;99.90;;;;;;5115904;28;20035;-72
2023/05/14 12:20:50;;;;;;;5.78;3.75;;;23.20;99.90;;;;;;5115873;28;20027;-73
2023/05/14 12:23:16;;;;;;;1.92;1.77;;;22.20;99.90;;;;;;5115908;28;20043;-74
2023/05/14 12:25:51;;;;;;;2.10;1.45;;;22.30;99.90;;;;;;5115864;28;20035;-72
2023/05/14 12:28:18;;;;;;;3.97;1.40;;;22.30;99.90;;;;;;5114838;28;20062;-71
2023/05/14 12:30:47;;;;;;;7.68;3.20;;;22.70;99.90;;;;;;5115621;28;20024;-73
2023/05/14 12:33:13;;;;;;;8.38;4.88;;;22.60;99.90;;;;;;5097364;28;20036;-70
2023/05/14 12:35:39;;;;;;;10.52;5.25;;;21.80;99.90;;;;;;5115587;28;20103;-74
2023/05/14 12:38:05;;;;;;;12.52;4.20;;;21.40;99.90;;;;;;5115282;28;20080;-71
2023/05/14 12:40:31;;;;;;;7.28;4.07;;;21.80;99.90;;;;;;5115283;28;20460;-72
2023/05/14 12:42:57;;;;;;;6.55;4.00;;;21.80;99.90;;;;;;5115038;28;20031;-69
2023/05/14 12:45:22;;;;;;;9.50;3.67;;;21.70;99.90;;;;;;5115436;28;20030;-71